createdAt,value
2023-02-06T00:04:27.438Z,87.81
2023-02-06T00:14:31.348Z,88.61
2023-02-06T00:24:33.782Z,88.75
2023-02-06T00:34:37.951Z,89.83
2023-02-06T00:44:40.496Z,88.95
2023-02-06T00:54:44.430Z,88.19
2023-02-06T01:04:46.907Z,88.28
2023-02-06T01:14:50.766Z,87.99
2023-02-06T01:24:53.288Z,87.70
2023-02-06T01:34:57.280Z,88.07
2023-02-06T01:45:32.834Z,88.23
2023-02-06T01:55:38.376Z,87.66
2023-02-06T02:05:41.455Z,86.85
2023-02-06T02:15:53.832Z,87.89
2023-02-06T02:26:14.874Z,88.24
2023-02-06T02:36:21.197Z,87.94
2023-02-06T02:46:25.454Z,87.28
2023-02-06T02:56:29.431Z,87.60
2023-02-06T03:06:40.286Z,87.29
2023-02-06T03:16:47.275Z,87.65
2023-02-06T03:26:51.214Z,88.70
2023-02-06T03:36:55.472Z,89.04
2023-02-06T03:46:59.714Z,88.13
2023-02-06T03:57:05.082Z,87.43
2023-02-06T04:07:12.797Z,87.97
2023-02-06T04:17:28.180Z,86.99
2023-02-06T04:27:39.295Z,87.60
2023-02-06T04:37:43.162Z,88.33
2023-02-06T04:47:49.369Z,87.90
2023-02-06T04:57:53.312Z,88.54
2023-02-06T05:07:56.189Z,88.89
2023-02-06T05:18:00.284Z,88.49
2023-02-06T05:28:02.874Z,88.31
2023-02-06T05:38:06.970Z,87.35
2023-02-06T05:48:09.489Z,88.80
2023-02-06T05:58:13.534Z,87.71
2023-02-06T06:08:16.103Z,87.18
2023-02-06T06:18:20.394Z,86.78
2023-02-06T06:28:23.176Z,86.87
2023-02-06T06:38:27.042Z,86.64
2023-02-06T06:48:29.764Z,86.88
2023-02-06T06:58:33.720Z,86.65
2023-02-06T07:08:41.673Z,86.29
2023-02-06T07:18:45.492Z,85.71
2023-02-06T07:28:49.724Z,85.46
2023-02-06T07:38:53.525Z,85.33
2023-02-06T07:48:56.342Z,86.72
2023-02-06T07:59:00.076Z,86.37
2023-02-06T08:09:02.693Z,85.35
2023-02-06T08:19:10.728Z,85.34
2023-02-06T08:29:14.329Z,84.53
2023-02-06T08:39:19.154Z,84.76
2023-02-06T08:49:22.424Z,84.08
2023-02-06T08:59:26.682Z,84.42
2023-02-06T09:09:29.164Z,84.36
2023-02-06T09:19:33.005Z,84.33
2023-02-06T09:29:35.597Z,83.67
2023-02-06T09:39:39.391Z,83.81
2023-02-06T09:49:44.555Z,82.48
2023-02-06T09:59:50.350Z,81.63
2023-02-06T10:09:55.235Z,80.70
2023-02-06T10:20:03.188Z,80.97
2023-02-06T10:30:05.763Z,79.78
2023-02-06T10:40:21.179Z,79.12
2023-02-06T10:50:26.886Z,77.17
2023-02-06T11:00:31.261Z,76.50
2023-02-06T11:10:33.846Z,75.78
2023-02-06T11:20:39.258Z,75.41
2023-02-06T11:30:42.822Z,76.11
2023-02-06T11:40:54.670Z,73.86
2023-02-06T11:50:57.091Z,74.27
2023-02-06T12:01:02.734Z,73.98
2023-02-06T12:11:06.799Z,72.05
2023-02-06T12:21:14.178Z,72.69
2023-02-06T12:31:20.310Z,71.73
2023-02-06T12:41:33.639Z,70.94
2023-02-06T12:51:40.300Z,72.14
2023-02-06T13:01:53.875Z,71.65
2023-02-06T13:12:07.100Z,70.02
2023-02-06T13:22:32.286Z,70.37
2023-02-06T13:32:42.961Z,69.36
2023-02-06T13:42:50.618Z,70.81
2023-02-06T13:53:01.232Z,69.84
2023-02-06T14:03:07.371Z,69.88
2023-02-06T14:13:16.606Z,70.22
2023-02-06T14:23:28.503Z,70.02
2023-02-06T14:33:45.833Z,71.47
2023-02-06T14:43:51.469Z,70.69
2023-02-06T14:53:57.200Z,70.68
2023-02-06T15:04:10.944Z,71.28
2023-02-06T15:14:20.953Z,71.07
2023-02-06T15:24:36.748Z,71.22
2023-02-06T15:34:39.204Z,71.63
2023-02-06T15:44:43.384Z,71.39
2023-02-06T15:54:57.425Z,70.52
2023-02-06T16:05:02.454Z,69.89
2023-02-06T16:15:22.557Z,69.26
2023-02-06T16:25:31.392Z,69.48
2023-02-06T16:35:33.833Z,69.35
2023-02-06T16:45:37.674Z,70.11
2023-02-06T16:55:43.415Z,70.07
2023-02-06T17:05:49.045Z,70.23
2023-02-06T17:15:53.123Z,69.79
2023-02-06T17:25:57.115Z,69.58
2023-02-06T17:35:59.629Z,70.30
2023-02-06T17:46:03.442Z,69.91
2023-02-06T17:56:06.598Z,69.17
2023-02-06T18:06:11.029Z,69.80
2023-02-06T18:16:14.868Z,69.98
2023-02-06T18:26:19.005Z,70.74
2023-02-06T18:36:21.708Z,71.30
2023-02-06T18:46:25.568Z,72.43
2023-02-06T18:56:28.029Z,72.19
2023-02-06T19:06:35.310Z,71.75
2023-02-06T19:16:38.643Z,72.05
2023-02-06T19:26:43.152Z,74.33
2023-02-06T19:36:45.590Z,74.42
2023-02-06T19:46:49.486Z,76.86
2023-02-06T19:56:51.994Z,77.96
2023-02-06T20:06:55.870Z,77.91
2023-02-06T20:16:58.419Z,77.91
2023-02-06T20:27:03.273Z,78.19
2023-02-06T20:37:05.723Z,79.01
2023-02-06T20:47:09.517Z,79.07
2023-02-06T20:57:13.177Z,80.04
2023-02-06T21:07:19.338Z,81.08
2023-02-06T21:17:21.776Z,82.76
2023-02-06T21:27:25.589Z,81.68
2023-02-06T21:37:28.570Z,80.70
2023-02-06T21:47:32.680Z,80.61
2023-02-06T21:57:35.237Z,82.21
2023-02-06T22:07:39.259Z,82.72
2023-02-06T22:17:41.743Z,81.45
2023-02-06T22:27:45.799Z,82.31
2023-02-06T22:37:48.275Z,82.82
2023-02-06T22:47:52.072Z,81.90
2023-02-06T22:57:54.526Z,81.66
2023-02-06T23:07:58.714Z,81.02
2023-02-06T23:18:01.332Z,79.00
2023-02-06T23:28:05.472Z,76.67
2023-02-06T23:38:09.644Z,73.79
2023-02-06T23:48:13.492Z,72.23
2023-02-06T23:58:16.084Z,70.46
